Time;durP1;ratioP1;P1;durP2;ratioP2;P2;SDS_P1;SDS_P2;PMS_P1;PMS_P2;Temp;Humidity;BMP_temperature;BMP_pressure;BME280_temperature;BME280_humidity;BME280_pressure;Samples;Min_cycle;Max_cycle;Signal;HPM_P1;HPM_P2
2022/07/17 00:01:28;;;;;;;5.22;2.30;;;10.90;99.90;;;;;;4882084;29;20132;-66
2022/07/17 00:03:54;;;;;;;4.53;1.92;;;10.90;99.90;;;;;;4862157;29;20056;-67
2022/07/17 00:06:20;;;;;;;3.63;1.60;;;10.90;99.90;;;;;;4879225;29;20128;-66
2022/07/17 00:08:46;;;;;;;6.63;1.92;;;10.70;99.90;;;;;;4865315;29;20475;-66
2022/07/17 00:11:12;;;;;;;4.80;1.55;;;10.80;99.90;;;;;;4879781;29;20053;-66
2022/07/17 00:13:38;;;;;;;4.43;1.77;;;10.80;99.90;;;;;;4884666;29;20466;-67
2022/07/17 00:16:04;;;;;;;3.95;2.10;;;10.70;99.90;;;;;;4900495;29;20136;-67
2022/07/17 00:18:30;;;;;;;3.08;1.88;;;10.60;99.90;;;;;;4897255;29;20536;-67
2022/07/17 00:20:56;;;;;;;5.10;2.20;;;10.60;99.90;;;;;;4899580;29;20080;-66
2022/07/17 00:23:22;;;;;;;2.13;1.83;;;10.60;99.90;;;;;;4871304;29;20046;-66
2022/07/17 00:25:48;;;;;;;2.72;1.80;;;10.50;99.90;;;;;;4895689;29;20056;-65
2022/07/17 00:28:13;;;;;;;3.45;2.00;;;10.50;99.90;;;;;;4900013;29;20052;-66
2022/07/17 00:30:39;;;;;;;3.92;1.90;;;10.50;99.90;;;;;;4897434;29;20417;-66
2022/07/17 00:33:05;;;;;;;4.47;1.90;;;10.50;99.90;;;;;;4898407;29;20048;-65
2022/07/17 00:35:35;;;;;;;2.95;1.80;;;10.50;99.90;;;;;;4899700;29;20069;-65
2022/07/17 00:38:00;;;;;;;3.72;2.28;;;10.40;99.90;;;;;;4897846;29;20048;-66
2022/07/17 00:40:26;;;;;;;3.38;2.00;;;10.50;99.90;;;;;;4878350;29;20095;-66
2022/07/17 00:42:52;;;;;;;2.15;1.83;;;10.40;99.90;;;;;;4895510;29;20162;-66
2022/07/17 00:45:19;;;;;;;2.55;1.88;;;10.40;99.90;;;;;;4898346;29;20135;-66
2022/07/17 00:48:11;;;;;;;3.65;2.25;;;10.30;99.90;;;;;;4898686;29;20049;-65
2022/07/17 00:50:39;;;;;;;3.05;1.98;;;10.30;99.90;;;;;;4896286;29;20073;-66
2022/07/17 00:53:06;;;;;;;3.95;2.00;;;10.30;99.90;;;;;;4897070;29;20514;-66
2022/07/17 00:55:32;;;;;;;7.47;2.83;;;10.20;99.90;;;;;;4878238;29;20071;-66
2022/07/17 00:58:02;;;;;;;4.50;1.95;;;10.20;99.90;;;;;;4897897;29;20394;-66
2022/07/17 01:00:28;;;;;;;3.08;2.00;;;10.20;99.90;;;;;;4895658;29;20056;-65
2022/07/17 01:02:55;;;;;;;3.90;2.35;;;10.20;99.90;;;;;;4876153;29;20067;-65
2022/07/17 01:05:21;;;;;;;3.35;2.15;;;10.20;99.90;;;;;;4896458;29;20045;-66
2022/07/17 01:07:48;;;;;;;4.32;2.50;;;10.10;99.90;;;;;;4879101;29;20064;-66
2022/07/17 01:10:18;;;;;;;2.85;2.03;;;10.10;99.90;;;;;;4879316;29;20056;-65
2022/07/17 01:12:46;;;;;;;4.70;2.42;;;10.10;99.90;;;;;;4872650;29;20061;-65
2022/07/17 01:15:13;;;;;;;3.10;2.67;;;10.10;99.90;;;;;;4897372;29;20506;-65
2022/07/17 01:17:38;;;;;;;4.72;2.85;;;10.00;99.90;;;;;;4896666;29;20107;-65
2022/07/17 01:20:09;;;;;;;4.03;2.20;;;10.00;99.90;;;;;;4895116;29;20490;-65
2022/07/17 01:22:48;;;;;;;3.22;2.40;;;10.00;99.90;;;;;;4896364;29;20067;-65
2022/07/17 01:25:14;;;;;;;4.38;2.20;;;10.00;99.90;;;;;;4896191;29;20403;-65
2022/07/17 01:27:41;;;;;;;2.90;1.98;;;9.90;99.90;;;;;;4894717;29;20052;-65
2022/07/17 01:30:08;;;;;;;3.40;2.40;;;10.00;99.90;;;;;;4877545;29;20056;-65
2022/07/17 01:32:35;;;;;;;2.38;2.15;;;9.90;99.90;;;;;;4896333;29;20397;-65
2022/07/17 01:35:02;;;;;;;3.67;1.95;;;9.90;99.90;;;;;;4897142;29;20052;-64
2022/07/17 01:37:28;;;;;;;2.70;2.10;;;9.90;99.90;;;;;;4895470;29;20147;-65
2022/07/17 01:39:54;;;;;;;3.38;2.35;;;9.90;99.90;;;;;;4879634;29;20048;-65
2022/07/17 01:42:24;;;;;;;4.38;2.60;;;9.80;99.90;;;;;;4879525;29;20124;-65
2022/07/17 01:44:50;;;;;;;5.53;2.70;;;9.80;99.90;;;;;;4879814;29;20057;-66
2022/07/17 01:47:17;;;;;;;5.15;2.47;;;9.80;99.90;;;;;;4877249;29;20044;-66
2022/07/17 01:49:44;;;;;;;3.92;2.17;;;9.80;99.90;;;;;;4879061;29;20525;-66
2022/07/17 01:52:10;;;;;;;4.45;2.60;;;9.80;99.90;;;;;;4896969;29;20053;-65
2022/07/17 01:54:35;;;;;;;5.00;2.40;;;9.80;99.90;;;;;;4894378;29;20056;-65
2022/07/17 01:57:01;;;;;;;3.38;2.65;;;9.80;99.90;;;;;;4879906;29;20049;-66
2022/07/17 01:59:26;;;;;;;4.32;2.38;;;9.70;99.90;;;;;;4896616;29;20052;-65
2022/07/17 02:01:52;;;;;;;3.55;2.10;;;9.70;99.90;;;;;;4894847;29;20136;-65
2022/07/17 02:04:17;;;;;;;2.88;2.30;;;9.70;99.90;;;;;;4897016;29;20486;-65
2022/07/17 02:06:43;;;;;;;3.08;2.55;;;9.70;99.90;;;;;;4896230;29;20478;-65
2022/07/17 02:09:09;;;;;;;4.43;2.00;;;9.70;99.90;;;;;;4877884;29;20068;-65
2022/07/17 02:11:34;;;;;;;2.63;2.25;;;9.70;99.90;;;;;;4896852;29;20055;-66
2022/07/17 02:14:00;;;;;;;4.43;2.30;;;9.70;99.90;;;;;;4878909;29;20136;-65
2022/07/17 02:16:25;;;;;;;3.25;2.38;;;9.70;99.90;;;;;;4896643;29;20048;-65
2022/07/17 02:18:51;;;;;;;3.13;2.10;;;9.70;99.90;;;;;;4894319;29;20048;-66
2022/07/17 02:21:17;;;;;;;3.10;2.67;;;9.70;99.90;;;;;;4879667;29;20059;-66
2022/07/17 02:23:42;;;;;;;3.42;2.65;;;9.70;99.90;;;;;;4895150;29;20088;-66
2022/07/17 02:26:09;;;;;;;5.60;2.75;;;9.70;99.90;;;;;;4893652;29;20144;-65
2022/07/17 02:28:35;;;;;;;4.70;2.63;;;9.70;99.90;;;;;;4878432;29;20071;-65
2022/07/17 02:31:00;;;;;;;2.90;2.15;;;9.70;99.90;;;;;;4895704;29;20088;-65
2022/07/17 02:33:26;;;;;;;3.67;2.42;;;9.70;99.90;;;;;;4878415;29;20048;-65
2022/07/17 02:35:51;;;;;;;2.88;2.58;;;9.70;99.90;;;;;;4863188;29;20059;-65
2022/07/17 02:38:17;;;;;;;2.55;2.35;;;9.70;99.90;;;;;;4888651;29;20197;-66
2022/07/17 02:40:42;;;;;;;2.80;2.33;;;9.70;99.90;;;;;;4894159;29;20067;-65
2022/07/17 02:43:08;;;;;;;4.10;2.42;;;9.60;99.90;;;;;;4895545;29;20082;-66
2022/07/17 02:45:34;;;;;;;3.67;2.40;;;9.60;99.90;;;;;;4893652;29;20112;-65
2022/07/17 02:47:59;;;;;;;4.07;2.75;;;9.70;99.90;;;;;;4894472;29;20052;-65
2022/07/17 02:50:25;;;;;;;4.72;3.00;;;9.60;99.90;;;;;;4874457;29;20056;-66
2022/07/17 02:52:51;;;;;;;3.78;2.60;;;9.60;99.90;;;;;;4876129;29;20052;-66
2022/07/17 02:55:18;;;;;;;3.42;2.65;;;9.60;99.90;;;;;;4893453;29;21662;-66
2022/07/17 02:57:46;;;;;;;3.83;2.50;;;9.60;99.90;;;;;;4896258;29;20052;-65
2022/07/17 03:00:15;;;;;;;3.25;2.70;;;9.60;99.90;;;;;;4893497;29;20048;-66
2022/07/17 03:02:45;;;;;;;4.10;2.60;;;9.60;99.90;;;;;;4875806;29;20486;-65
2022/07/17 03:05:11;;;;;;;4.95;2.75;;;9.60;99.90;;;;;;4895546;29;20079;-66
2022/07/17 03:07:37;;;;;;;3.80;2.38;;;9.50;99.90;;;;;;4895654;29;20176;-65
2022/07/17 03:10:03;;;;;;;5.53;2.90;;;9.50;99.90;;;;;;4895503;29;20135;-65
2022/07/17 03:12:29;;;;;;;3.65;2.35;;;9.50;99.90;;;;;;4894924;29;20048;-65
2022/07/17 03:14:55;;;;;;;4.70;2.42;;;9.60;99.90;;;;;;4877820;29;20083;-65
2022/07/17 03:17:21;;;;;;;3.33;2.30;;;9.50;99.90;;;;;;4893957;29;20061;-65
2022/07/17 03:19:46;;;;;;;4.63;2.20;;;9.50;99.90;;;;;;4878720;29;20351;-65
2022/07/17 03:22:12;;;;;;;3.38;2.33;;;9.50;99.90;;;;;;4894971;29;20096;-65
2022/07/17 03:24:37;;;;;;;2.75;2.40;;;9.50;99.90;;;;;;4894756;29;20059;-65
2022/07/17 03:27:03;;;;;;;3.35;2.08;;;9.40;99.90;;;;;;4875332;29;20517;-65
2022/07/17 03:29:29;;;;;;;2.03;1.90;;;9.40;99.90;;;;;;4895289;29;20052;-66
2022/07/17 03:31:54;;;;;;;2.30;2.10;;;9.40;99.90;;;;;;4896868;29;20510;-65
2022/07/17 03:34:20;;;;;;;2.85;2.13;;;9.40;99.90;;;;;;4898791;29;20087;-65
2022/07/17 03:36:46;;;;;;;3.28;2.30;;;9.40;99.90;;;;;;4899900;29;20048;-66
2022/07/17 03:39:12;;;;;;;3.08;2.22;;;9.40;99.90;;;;;;4862424;29;20091;-65
2022/07/17 03:41:38;;;;;;;4.45;2.30;;;9.40;99.90;;;;;;4897589;29;20088;-65
2022/07/17 03:44:03;;;;;;;2.90;2.60;;;9.40;99.90;;;;;;4899409;29;20048;-65
2022/07/17 03:46:29;;;;;;;3.90;2.10;;;9.40;99.90;;;;;;4897145;29;20051;-64
2022/07/17 03:48:55;;;;;;;3.67;2.40;;;9.40;99.90;;;;;;4897151;29;20092;-65
2022/07/17 03:51:20;;;;;;;2.15;1.95;;;9.40;99.90;;;;;;4899412;29;20119;-65
2022/07/17 03:53:46;;;;;;;3.10;1.85;;;9.40;99.90;;;;;;4896593;29;20502;-65
2022/07/17 03:56:11;;;;;;;2.92;2.47;;;9.30;99.90;;;;;;4881789;29;20136;-65
2022/07/17 03:58:37;;;;;;;4.07;2.33;;;9.40;99.90;;;;;;4898008;29;20474;-65
2022/07/17 04:01:03;;;;;;;2.83;2.58;;;9.40;99.90;;;;;;4899257;29;20052;-65
2022/07/17 04:03:28;;;;;;;2.47;2.08;;;9.40;99.90;;;;;;4896198;29;20064;-65
2022/07/17 04:05:54;;;;;;;5.43;2.08;;;9.40;99.90;;;;;;4898324;29;20055;-65
2022/07/17 04:08:19;;;;;;;5.32;2.67;;;9.40;99.90;;;;;;4897358;29;20051;-65
2022/07/17 04:10:45;;;;;;;3.75;2.25;;;9.40;99.90;;;;;;4898332;29;20052;-66
2022/07/17 04:13:11;;;;;;;3.60;2.50;;;9.40;99.90;;;;;;4898443;29;20183;-65
2022/07/17 04:15:49;;;;;;;8.52;3.00;;;9.50;99.90;;;;;;4863698;29;20505;-65
2022/07/17 04:18:22;;;;;;;3.03;2.60;;;9.50;99.90;;;;;;4891000;29;20192;-65
2022/07/17 04:20:48;;;;;;;3.17;2.30;;;9.60;99.90;;;;;;4897485;29;20091;-66
2022/07/17 04:23:14;;;;;;;8.73;2.67;;;9.70;99.90;;;;;;4881722;29;20067;-65
2022/07/17 04:25:41;;;;;;;3.58;2.70;;;9.70;99.90;;;;;;4897071;29;20522;-65
2022/07/17 04:28:06;;;;;;;3.33;2.63;;;9.80;99.90;;;;;;4898663;29;20402;-66
2022/07/17 04:30:33;;;;;;;3.42;2.78;;;9.80;99.90;;;;;;4877208;29;20049;-66
2022/07/17 04:32:58;;;;;;;3.33;2.50;;;9.90;99.90;;;;;;4896808;29;20403;-65
2022/07/17 04:35:24;;;;;;;3.03;2.53;;;10.00;99.90;;;;;;4896605;29;20064;-66
2022/07/17 04:37:50;;;;;;;3.03;2.40;;;10.10;99.90;;;;;;4897733;29;20486;-65
2022/07/17 04:40:16;;;;;;;3.88;2.65;;;10.10;99.90;;;;;;4897430;29;20049;-65
2022/07/17 04:42:41;;;;;;;3.90;2.83;;;10.20;99.90;;;;;;4865456;29;20063;-66
2022/07/17 04:45:07;;;;;;;3.10;2.50;;;10.20;99.90;;;;;;4898122;29;20131;-66
2022/07/17 04:47:34;;;;;;;4.60;2.63;;;10.30;99.90;;;;;;4894701;29;20158;-65
2022/07/17 04:50:00;;;;;;;3.55;2.67;;;10.40;99.90;;;;;;4900126;29;20413;-66
2022/07/17 04:52:25;;;;;;;4.78;3.25;;;10.50;99.90;;;;;;4898066;29;20127;-66
2022/07/17 04:54:51;;;;;;;5.07;2.72;;;10.50;99.90;;;;;;4894906;29;20088;-66
2022/07/17 04:57:16;;;;;;;3.15;2.60;;;10.70;99.90;;;;;;4894540;29;20092;-65
2022/07/17 04:59:42;;;;;;;3.25;2.47;;;10.80;99.90;;;;;;4896500;29;20485;-65
2022/07/17 05:02:08;;;;;;;5.57;2.45;;;10.90;99.90;;;;;;4873078;29;20377;-66
2022/07/17 05:04:34;;;;;;;3.13;2.50;;;11.10;99.90;;;;;;4895461;29;20108;-66
2022/07/17 05:06:59;;;;;;;4.63;2.55;;;11.20;99.90;;;;;;4893916;29;20132;-65
2022/07/17 05:09:25;;;;;;;3.03;2.17;;;11.30;99.90;;;;;;4898042;29;20139;-66
2022/07/17 05:11:51;;;;;;;3.53;2.50;;;11.50;99.90;;;;;;4881206;29;20064;-66
2022/07/17 05:14:16;;;;;;;3.72;2.42;;;11.60;99.90;;;;;;4896291;29;20207;-66
2022/07/17 05:16:42;;;;;;;2.40;2.20;;;11.70;99.90;;;;;;4896872;29;20105;-66
2022/07/17 05:19:08;;;;;;;5.35;2.65;;;11.80;99.90;;;;;;4895934;29;20056;-66
2022/07/17 05:21:33;;;;;;;5.18;2.75;;;11.90;99.90;;;;;;4896697;29;20131;-65
2022/07/17 05:23:59;;;;;;;5.35;2.97;;;12.00;99.90;;;;;;4880799;29;20052;-66
2022/07/17 05:26:25;;;;;;;5.28;2.85;;;12.10;99.90;;;;;;4896595;29;20148;-66
2022/07/17 05:28:50;;;;;;;2.53;2.13;;;12.10;99.90;;;;;;4892403;29;20493;-66
2022/07/17 05:31:17;;;;;;;5.13;2.85;;;12.20;99.90;;;;;;4887567;29;20092;-66
2022/07/17 05:33:43;;;;;;;6.47;2.80;;;12.20;99.90;;;;;;4875166;29;20132;-66
2022/07/17 05:36:08;;;;;;;3.10;2.20;;;12.30;99.90;;;;;;4893192;29;20184;-66
2022/07/17 05:38:34;;;;;;;3.25;2.08;;;12.30;99.90;;;;;;4887964;29;20060;-65
2022/07/17 05:41:00;;;;;;;4.82;1.92;;;12.30;99.90;;;;;;4890381;29;20064;-66
2022/07/17 05:43:26;;;;;;;5.85;2.63;;;12.30;99.90;;;;;;4891514;29;20040;-65
2022/07/17 05:45:59;;;;;;;5.63;2.50;;;12.40;99.90;;;;;;4893623;29;20450;-65
2022/07/17 05:48:26;;;;;;;3.70;2.00;;;12.40;99.90;;;;;;4894609;29;20474;-66
2022/07/17 05:50:52;;;;;;;3.53;2.22;;;12.50;99.90;;;;;;4880209;29;20504;-66
2022/07/17 05:53:18;;;;;;;2.58;1.75;;;12.60;99.90;;;;;;4896833;29;20061;-66
2022/07/17 05:55:44;;;;;;;4.80;2.15;;;12.60;99.90;;;;;;4881297;29;20080;-66
2022/07/17 05:58:10;;;;;;;2.45;2.00;;;12.70;99.90;;;;;;4897040;29;20049;-66
2022/07/17 06:00:36;;;;;;;5.32;2.00;;;12.80;99.90;;;;;;4896383;29;20048;-66
2022/07/17 06:03:02;;;;;;;5.07;2.20;;;12.90;99.90;;;;;;4895943;29;20056;-66
2022/07/17 06:05:28;;;;;;;3.25;2.03;;;13.00;99.90;;;;;;4881190;29;20123;-66
2022/07/17 06:07:55;;;;;;;2.65;1.70;;;13.20;99.90;;;;;;4897201;29;20048;-67
2022/07/17 06:10:21;;;;;;;3.47;1.80;;;13.30;99.90;;;;;;4881636;29;20063;-67
2022/07/17 06:12:47;;;;;;;4.18;1.80;;;13.50;99.90;;;;;;4898471;29;20048;-66
2022/07/17 06:15:12;;;;;;;2.22;1.70;;;13.60;99.90;;;;;;4897868;29;20065;-67
2022/07/17 06:17:38;;;;;;;4.22;2.03;;;13.70;99.90;;;;;;4897613;29;20521;-66
2022/07/17 06:20:05;;;;;;;3.70;1.80;;;13.90;99.90;;;;;;4880680;29;20056;-67
2022/07/17 06:22:30;;;;;;;2.47;1.45;;;14.50;99.90;;;;;;4898332;29;20400;-66
2022/07/17 06:24:56;;;;;;;9.10;2.22;;;15.70;99.90;;;;;;4898306;29;20060;-66
2022/07/17 06:27:22;;;;;;;4.07;1.98;;;17.00;99.90;;;;;;4880142;29;20149;-66
2022/07/17 06:29:47;;;;;;;4.03;1.80;;;18.10;99.90;;;;;;4881412;29;20082;-66
2022/07/17 06:32:13;;;;;;;4.40;1.50;;;18.80;99.90;;;;;;4880683;29;20056;-67
2022/07/17 06:34:39;;;;;;;2.53;1.30;;;19.50;99.90;;;;;;4893387;29;20057;-66
2022/07/17 06:37:05;;;;;;;1.90;1.20;;;20.00;99.90;;;;;;4897916;29;20545;-67
2022/07/17 06:39:30;;;;;;;3.65;1.15;;;20.40;99.90;;;;;;4897318;29;20068;-67
2022/07/17 06:41:56;;;;;;;3.10;1.20;;;19.80;99.90;;;;;;4891452;29;20060;-65
2022/07/17 06:44:22;;;;;;;4.35;1.10;;;19.10;99.90;;;;;;4881319;29;20103;-66
2022/07/17 06:46:47;;;;;;;6.78;1.25;;;18.50;99.90;;;;;;4897260;29;20139;-65
2022/07/17 06:49:13;;;;;;;2.22;1.08;;;18.10;99.90;;;;;;4897350;29;20068;-67
2022/07/17 06:51:39;;;;;;;2.63;0.93;;;17.90;99.90;;;;;;4897559;29;20071;-66
2022/07/17 06:54:04;;;;;;;3.08;1.05;;;17.70;99.90;;;;;;4880945;29;20052;-65
2022/07/17 06:56:30;;;;;;;2.83;1.20;;;17.60;99.90;;;;;;4897781;29;20063;-66
2022/07/17 06:58:58;;;;;;;2.47;1.10;;;17.60;99.90;;;;;;4897950;29;20048;-67
2022/07/17 07:01:24;;;;;;;4.85;1.30;;;17.50;99.90;;;;;;4897818;29;20061;-66
2022/07/17 07:03:49;;;;;;;3.03;1.02;;;17.50;99.90;;;;;;4879791;29;20517;-66
2022/07/17 07:06:15;;;;;;;2.90;1.08;;;17.50;99.90;;;;;;4899191;29;20084;-67
2022/07/17 07:08:41;;;;;;;3.35;1.13;;;17.60;99.90;;;;;;4901329;29;20060;-66
2022/07/17 07:11:07;;;;;;;3.30;1.08;;;17.70;99.90;;;;;;4901191;29;20057;-66
2022/07/17 07:13:33;;;;;;;3.67;1.17;;;17.80;99.90;;;;;;4901257;29;20052;-66
2022/07/17 07:15:59;;;;;;;5.45;1.25;;;17.90;99.90;;;;;;4884695;29;20135;-67
2022/07/17 07:18:25;;;;;;;2.90;1.02;;;18.00;99.90;;;;;;4900339;29;20044;-65
2022/07/17 07:20:50;;;;;;;4.57;1.05;;;18.30;99.90;;;;;;4901187;29;20052;-66
2022/07/17 07:23:16;;;;;;;3.25;1.10;;;18.50;99.90;;;;;;4884380;29;20056;-66
2022/07/17 07:25:43;;;;;;;1.90;1.00;;;18.80;99.90;;;;;;4901594;29;20053;-66
2022/07/17 07:28:08;;;;;;;3.60;1.10;;;19.00;99.90;;;;;;4901377;29;20056;-66
2022/07/17 07:30:34;;;;;;;4.38;1.05;;;19.00;99.90;;;;;;4884377;29;20429;-67
2022/07/17 07:33:00;;;;;;;3.42;1.20;;;19.10;99.90;;;;;;4884276;29;20064;-67
2022/07/17 07:35:25;;;;;;;2.97;1.20;;;19.10;99.90;;;;;;4900968;29;20048;-66
2022/07/17 07:37:51;;;;;;;4.35;1.38;;;19.10;99.90;;;;;;4883597;29;20331;-67
2022/07/17 07:40:16;;;;;;;3.80;1.13;;;19.10;99.90;;;;;;4901213;29;20060;-67
2022/07/17 07:42:42;;;;;;;2.50;0.77;;;19.20;99.90;;;;;;4883755;29;20146;-67
2022/07/17 07:45:08;;;;;;;3.53;0.85;;;19.30;99.90;;;;;;4900740;29;20095;-66
2022/07/17 07:47:41;;;;;;;3.22;1.30;;;19.30;99.90;;;;;;4900371;29;20068;-67
2022/07/17 07:50:07;;;;;;;1.83;0.85;;;19.40;99.90;;;;;;4883395;29;20052;-66
2022/07/17 07:52:33;;;;;;;4.97;1.10;;;19.40;99.90;;;;;;4900046;29;20477;-67
2022/07/17 07:54:59;;;;;;;2.38;1.20;;;19.30;99.90;;;;;;4901023;29;20116;-67
2022/07/17 07:57:24;;;;;;;4.88;1.05;;;19.20;99.90;;;;;;4899720;29;20059;-66
2022/07/17 07:59:50;;;;;;;3.53;1.20;;;19.20;99.90;;;;;;4901080;29;20062;-66
2022/07/17 08:02:15;;;;;;;4.10;1.45;;;19.10;99.90;;;;;;4900443;29;20087;-65
2022/07/17 08:04:41;;;;;;;6.40;1.60;;;19.10;99.90;;;;;;4900335;29;20081;-67
2022/07/17 08:07:06;;;;;;;5.03;1.10;;;19.10;99.90;;;;;;4900537;29;20063;-66
2022/07/17 08:09:32;;;;;;;2.55;0.90;;;19.10;99.90;;;;;;4883632;29;20509;-66
2022/07/17 08:11:58;;;;;;;2.95;1.05;;;19.10;99.90;;;;;;4883684;29;20057;-65
2022/07/17 08:14:23;;;;;;;2.35;1.10;;;19.30;99.90;;;;;;4900482;29;20065;-67
2022/07/17 08:16:49;;;;;;;5.20;1.15;;;19.40;99.90;;;;;;4882821;29;20506;-67
2022/07/17 08:19:14;;;;;;;4.53;1.02;;;19.50;99.90;;;;;;4899259;29;20049;-66
2022/07/17 08:21:40;;;;;;;4.70;1.25;;;19.60;99.90;;;;;;4900512;29;20120;-67
2022/07/17 08:24:05;;;;;;;3.00;1.00;;;19.70;99.90;;;;;;4899950;29;20044;-66
2022/07/17 08:26:31;;;;;;;4.10;0.90;;;19.70;99.90;;;;;;4899647;29;20471;-66
2022/07/17 08:28:57;;;;;;;3.15;0.93;;;19.90;99.90;;;;;;4883219;29;20108;-66
2022/07/17 08:31:22;;;;;;;2.75;1.00;;;19.90;99.90;;;;;;4899925;29;20053;-66
2022/07/17 08:34:14;;;;;;;3.45;1.20;;;19.90;99.90;;;;;;4899507;29;20055;-65
2022/07/17 08:36:40;;;;;;;2.33;1.08;;;20.00;99.90;;;;;;4883157;29;20063;-67
2022/07/17 08:39:06;;;;;;;3.70;1.08;;;20.10;99.90;;;;;;4883147;29;20057;-66
2022/07/17 08:41:37;;;;;;;2.83;0.90;;;20.10;99.90;;;;;;4882611;29;20053;-67
2022/07/17 08:44:07;;;;;;;7.35;1.30;;;20.00;99.90;;;;;;4899458;29;20473;-66
2022/07/17 08:46:37;;;;;;;3.75;1.23;;;20.00;99.90;;;;;;4899544;29;20482;-65
2022/07/17 08:49:04;;;;;;;3.15;1.10;;;20.00;99.90;;;;;;4866320;29;20063;-67
2022/07/17 08:51:30;;;;;;;7.20;1.38;;;20.00;99.90;;;;;;4899454;29;20097;-67
2022/07/17 08:53:59;;;;;;;3.28;1.33;;;20.00;99.90;;;;;;4899589;29;20060;-65
2022/07/17 08:56:26;;;;;;;3.13;1.05;;;20.20;99.90;;;;;;4899719;29;20439;-67
2022/07/17 08:58:52;;;;;;;2.70;1.23;;;20.30;99.90;;;;;;4899630;29;20060;-67
2022/07/17 09:01:19;;;;;;;2.92;0.93;;;20.30;99.70;;;;;;4899394;29;20064;-66
2022/07/17 09:04:06;;;;;;;4.43;1.20;;;20.20;98.30;;;;;;4898912;29;20060;-66
2022/07/17 09:06:33;;;;;;;4.43;0.90;;;20.20;97.10;;;;;;4899392;29;20569;-66
2022/07/17 09:09:10;;;;;;;5.22;1.35;;;20.20;98.60;;;;;;4882713;29;20056;-66
2022/07/17 09:12:14;;;;;;;3.88;1.02;;;20.30;99.90;;;;;;4898777;29;20132;-66
2022/07/17 09:14:42;;;;;;;2.53;0.85;;;20.40;99.20;;;;;;4858042;29;20052;-67
2022/07/17 09:17:10;;;;;;;2.85;0.98;;;20.60;97.50;;;;;;4897475;29;20494;-67
2022/07/17 09:19:40;;;;;;;3.70;1.15;;;20.70;95.90;;;;;;4913461;29;20052;-67
2022/07/17 09:22:07;;;;;;;5.40;1.25;;;20.70;94.50;;;;;;4898688;29;20463;-65
2022/07/17 09:24:42;;;;;;;4.30;0.88;;;20.70;95.00;;;;;;4881775;29;20127;-68
2022/07/17 09:27:08;;;;;;;2.50;1.08;;;20.70;93.80;;;;;;4881675;29;20059;-65
2022/07/17 09:29:34;;;;;;;3.65;1.05;;;20.50;94.60;;;;;;4897895;29;20049;-66
2022/07/17 09:32:53;;;;;;;2.08;0.80;;;20.60;97.10;;;;;;4892254;29;20127;-67
2022/07/17 09:35:23;;;;;;;1.88;0.80;;;20.60;94.00;;;;;;4879264;29;20071;-67
2022/07/17 09:38:35;;;;;;;2.95;1.27;;;20.40;94.60;;;;;;4860068;29;20447;-67
2022/07/17 09:41:15;;;;;;;3.28;1.13;;;20.50;95.10;;;;;;4872177;29;20164;-67
2022/07/17 09:43:57;;;;;;;1.73;0.90;;;20.50;93.80;;;;;;4847937;29;20479;-67
2022/07/17 09:46:31;;;;;;;2.53;1.15;;;20.50;97.10;;;;;;4871107;29;20057;-66
2022/07/17 09:49:00;;;;;;;3.75;1.10;;;20.60;95.30;;;;;;4865715;29;20044;-67
2022/07/17 09:51:34;;;;;;;2.15;1.00;;;20.70;95.80;;;;;;4897395;29;20080;-66
2022/07/17 09:54:08;;;;;;;2.65;1.00;;;20.80;96.60;;;;;;4881779;29;20060;-67
2022/07/17 09:56:35;;;;;;;2.35;1.13;;;21.00;96.30;;;;;;4898461;29;20059;-68
2022/07/17 09:59:05;;;;;;;3.20;0.90;;;21.10;94.00;;;;;;4892514;29;20398;-67
2022/07/17 10:01:32;;;;;;;3.15;1.20;;;21.10;94.70;;;;;;4897513;29;20155;-66
2022/07/17 10:03:58;;;;;;;2.08;1.00;;;21.20;93.10;;;;;;4881407;29;20494;-67
2022/07/17 10:06:25;;;;;;;2.67;1.27;;;21.30;92.50;;;;;;4898162;29;20100;-66
2022/07/17 10:08:52;;;;;;;3.65;1.40;;;21.40;91.00;;;;;;4898384;29;20061;-66
2022/07/17 10:11:34;;;;;;;2.58;0.90;;;21.40;92.60;;;;;;4881603;29;20056;-67
2022/07/17 10:14:05;;;;;;;;;;;21.60;88.50;;;;;;4880712;29;20378;-67
2022/07/17 10:16:32;;;;;;;2.30;1.10;;;21.60;88.60;;;;;;4898219;29;19923;-68
2022/07/17 10:18:58;;;;;;;3.65;1.10;;;21.50;90.00;;;;;;4880752;29;20044;-66
2022/07/17 10:21:26;;;;;;;2.65;1.10;;;21.50;86.50;;;;;;4898290;29;20124;-66
2022/07/17 10:23:54;;;;;;;3.30;1.30;;;21.50;83.60;;;;;;4896544;29;20056;-66
2022/07/17 10:26:43;;;;;;;1.90;1.08;;;21.60;83.90;;;;;;4898201;29;20119;-68
2022/07/17 10:29:35;;;;;;;3.08;1.10;;;21.70;91.90;;;;;;4896741;29;20057;-66
2022/07/17 10:32:02;;;;;;;;;;;21.80;83.80;;;;;;4897693;29;20418;-67
2022/07/17 10:38:22;;;;;;;4.05;1.08;;;21.70;80.50;;;;;;4897314;29;20122;-67
2022/07/17 10:44:09;;;;;;;4.25;1.25;;;21.90;83.80;;;;;;4885246;29;20067;-67
2022/07/17 10:46:35;;;;;;;2.00;1.00;;;22.00;86.70;;;;;;4897357;29;20049;-67
2022/07/17 10:49:51;;;;;;;2.40;1.20;;;22.10;85.70;;;;;;4896000;29;20513;-65
2022/07/17 10:52:18;;;;;;;3.40;1.30;;;22.20;80.90;;;;;;4860646;29;20513;-65
2022/07/17 10:54:43;;;;;;;2.20;1.00;;;22.20;81.20;;;;;;4879224;29;20057;-66
2022/07/17 10:57:09;;;;;;;3.22;1.10;;;22.30;80.60;;;;;;4879208;29;20139;-65
2022/07/17 10:59:35;;;;;;;3.97;1.25;;;22.40;80.50;;;;;;4879356;29;20049;-68
2022/07/17 11:02:00;;;;;;;2.50;1.20;;;22.40;81.10;;;;;;4877312;29;20091;-67
2022/07/17 11:04:36;;;;;;;2.05;1.08;;;22.40;78.90;;;;;;4862239;29;20088;-67
2022/07/17 11:07:30;;;;;;;4.20;1.30;;;22.50;76.10;;;;;;4878961;29;20052;-69
2022/07/17 11:09:58;;;;;;;2.50;1.23;;;22.40;76.10;;;;;;4879339;29;20084;-65
2022/07/17 11:12:34;;;;;;;5.63;1.45;;;22.50;77.10;;;;;;4862193;29;20483;-67
2022/07/17 11:19:43;;;;;;;3.97;1.20;;;22.60;79.50;;;;;;4878380;29;20073;-66
2022/07/17 11:26:04;;;;;;;2.58;1.20;;;22.50;76.10;;;;;;4862000;29;20072;-67
2022/07/17 11:29:08;;;;;;;2.35;1.15;;;22.60;76.50;;;;;;4877861;29;20264;-68
2022/07/17 11:35:38;;;;;;;2.22;1.20;;;22.80;75.30;;;;;;4877628;29;20447;-66
2022/07/17 11:38:04;;;;;;;3.22;1.10;;;22.80;73.70;;;;;;4878554;29;20049;-67
2022/07/17 11:40:30;;;;;;;2.92;1.20;;;22.90;75.50;;;;;;4878693;29;20510;-67
2022/07/17 11:43:00;;;;;;;3.30;1.20;;;22.90;73.70;;;;;;4878797;29;20057;-68
2022/07/17 11:45:26;;;;;;;1.60;1.10;;;23.00;74.40;;;;;;4882844;29;20152;-67
2022/07/17 11:47:51;;;;;;;2.58;1.38;;;23.10;72.10;;;;;;4859277;29;20136;-67
2022/07/17 11:50:18;;;;;;;1.70;1.38;;;23.00;70.20;;;;;;4860011;29;20062;-68
2022/07/17 11:52:48;;;;;;;3.35;1.17;;;22.90;70.00;;;;;;4870674;29;20079;-68
2022/07/17 11:55:15;;;;;;;2.15;1.25;;;22.90;70.30;;;;;;4865475;29;20090;-68
2022/07/17 11:57:44;;;;;;;2.33;1.52;;;22.90;70.00;;;;;;4865217;29;20064;-67
2022/07/17 12:00:11;;;;;;;2.10;1.33;;;23.20;71.60;;;;;;4856797;29;20069;-68
2022/07/17 12:02:36;;;;;;;2.42;1.20;;;23.30;71.10;;;;;;4854616;29;20057;-67
2022/07/17 12:05:02;;;;;;;1.23;1.00;;;23.40;72.60;;;;;;4880914;29;20060;-68
2022/07/17 12:07:39;;;;;;;2.92;1.13;;;23.40;70.90;;;;;;4881828;29;20056;-67
2022/07/17 12:10:16;;;;;;;2.65;1.20;;;23.50;69.20;;;;;;4881722;29;20076;-67
2022/07/17 12:12:52;;;;;;;3.67;1.42;;;23.60;70.10;;;;;;4881738;29;20068;-68
2022/07/17 12:15:18;;;;;;;3.13;1.23;;;23.60;68.70;;;;;;4882022;29;20057;-67
2022/07/17 12:17:44;;;;;;;2.25;1.48;;;23.70;68.80;;;;;;4881012;29;20064;-68
2022/07/17 12:20:09;;;;;;;2.13;1.30;;;23.60;68.60;;;;;;4865544;29;20045;-67
2022/07/17 12:22:46;;;;;;;2.60;1.30;;;23.70;67.70;;;;;;4864841;29;20406;-67
2022/07/17 12:25:31;;;;;;;1.90;1.48;;;23.60;65.60;;;;;;4881514;29;20057;-67
2022/07/17 12:27:57;;;;;;;4.88;1.60;;;23.50;64.40;;;;;;4878816;29;20056;-67
2022/07/17 12:30:23;;;;;;;4.07;1.63;;;23.50;66.60;;;;;;4864450;29;20065;-66
2022/07/17 12:32:48;;;;;;;3.22;1.50;;;23.60;67.60;;;;;;4881182;29;20091;-65
2022/07/17 12:35:15;;;;;;;2.30;1.08;;;23.60;67.40;;;;;;4863808;29;20405;-67
2022/07/17 12:37:41;;;;;;;2.53;1.67;;;23.70;68.20;;;;;;4881387;29;20056;-66
2022/07/17 12:40:08;;;;;;;2.70;1.58;;;23.90;68.00;;;;;;4865035;29;20364;-67
2022/07/17 12:42:33;;;;;;;2.85;1.88;;;23.90;65.00;;;;;;4881206;29;20402;-66
2022/07/17 12:44:59;;;;;;;5.90;2.22;;;24.00;65.10;;;;;;4881491;29;20132;-66
2022/07/17 12:47:24;;;;;;;2.78;1.88;;;24.10;66.20;;;;;;4880696;29;20061;-66
2022/07/17 12:49:50;;;;;;;2.25;1.90;;;24.00;64.30;;;;;;4880075;29;20060;-67
2022/07/17 12:52:16;;;;;;;3.47;2.30;;;24.10;63.60;;;;;;4864210;29;20049;-66
2022/07/17 12:54:41;;;;;;;3.28;2.00;;;24.20;63.40;;;;;;4880966;29;20048;-66
2022/07/17 12:57:07;;;;;;;3.70;2.13;;;24.10;62.80;;;;;;4870753;29;20056;-67
2022/07/17 12:59:33;;;;;;;3.05;1.85;;;24.10;62.60;;;;;;4881217;29;20562;-67
2022/07/17 13:01:59;;;;;;;2.72;1.77;;;24.30;63.40;;;;;;4879227;29;20541;-67
2022/07/17 13:04:24;;;;;;;2.72;2.28;;;24.30;64.10;;;;;;4879279;29;20049;-67
2022/07/17 13:06:50;;;;;;;3.08;2.38;;;24.40;62.80;;;;;;4861683;29;20053;-67
2022/07/17 13:09:16;;;;;;;4.43;2.45;;;24.50;61.30;;;;;;4876748;29;20045;-67
2022/07/17 13:12:10;;;;;;;3.22;2.47;;;24.50;60.90;;;;;;4876934;29;20049;-67
2022/07/17 13:14:36;;;;;;;3.22;2.08;;;24.60;60.20;;;;;;4877610;29;20129;-68